createdAt,value
2023-02-19T00:02:05.880Z,60.18
2023-02-19T00:04:36.612Z,59.75
2023-02-19T00:07:07.373Z,59.68
2023-02-19T00:09:38.596Z,59.45
2023-02-19T00:12:09.294Z,59.33
2023-02-19T00:14:42.668Z,59.22
2023-02-19T00:17:13.353Z,59.09
2023-02-19T00:19:43.731Z,59.64
2023-02-19T00:22:14.696Z,60.07
2023-02-19T00:24:46.142Z,60.14
2023-02-19T00:27:18.073Z,60.86
2023-02-19T00:29:50.960Z,61.53
2023-02-19T00:32:21.970Z,62.09
2023-02-19T00:34:53.228Z,62.54
2023-02-19T00:37:23.691Z,62.64
2023-02-19T00:39:54.558Z,62.84
2023-02-19T00:42:28.973Z,63.54
2023-02-19T00:45:00.441Z,63.37
2023-02-19T00:47:31.362Z,63.72
2023-02-19T00:50:01.807Z,63.96
2023-02-19T00:52:32.630Z,64.24
2023-02-19T00:55:03.762Z,64.02
2023-02-19T00:57:34.784Z,64.48
2023-02-19T01:00:07.727Z,64.74
2023-02-19T01:02:38.794Z,64.59
2023-02-19T01:05:09.874Z,64.59
2023-02-19T01:07:43.693Z,64.58
2023-02-19T01:10:14.350Z,64.74
2023-02-19T01:12:45.987Z,65.33
2023-02-19T01:15:17.028Z,64.94
2023-02-19T01:17:48.602Z,65.16
2023-02-19T01:20:19.906Z,65.14
2023-02-19T01:22:50.521Z,65.50
2023-02-19T01:25:21.638Z,64.88
2023-02-19T01:27:52.567Z,65.17
2023-02-19T01:30:23.543Z,64.74
2023-02-19T01:32:54.292Z,65.28
2023-02-19T01:35:25.114Z,65.67
2023-02-19T01:37:55.811Z,65.71
2023-02-19T01:40:27.661Z,66.28
2023-02-19T01:42:58.845Z,66.49
2023-02-19T01:45:33.087Z,66.98
2023-02-19T01:48:11.759Z,66.77
2023-02-19T01:50:47.776Z,66.75
2023-02-19T01:53:21.091Z,66.65
2023-02-19T01:55:56.074Z,66.90
2023-02-19T01:58:38.106Z,66.54
2023-02-19T02:01:11.585Z,66.36
2023-02-19T02:03:44.208Z,66.62
2023-02-19T02:06:29.429Z,66.36
2023-02-19T02:09:19.459Z,66.46
2023-02-19T02:11:53.231Z,66.55
2023-02-19T02:14:27.706Z,66.51
2023-02-19T02:17:22.946Z,66.56
2023-02-19T02:20:10.969Z,66.66
2023-02-19T02:23:02.698Z,66.60
2023-02-19T02:25:52.897Z,66.69
2023-02-19T02:28:34.175Z,66.75
2023-02-19T02:31:09.352Z,66.71
2023-02-19T02:33:49.697Z,66.61
2023-02-19T02:36:31.950Z,66.66
2023-02-19T02:39:06.204Z,66.88
2023-02-19T02:42:10.560Z,66.98
2023-02-19T02:44:43.160Z,66.76
2023-02-19T02:47:34.625Z,66.97
2023-02-19T02:50:08.871Z,67.18
2023-02-19T02:52:59.699Z,67.71
2023-02-19T02:55:33.622Z,68.28
2023-02-19T02:58:05.170Z,68.34
2023-02-19T03:01:14.571Z,68.51
2023-02-19T03:03:47.421Z,68.85
2023-02-19T03:06:19.136Z,69.05
2023-02-19T03:09:06.940Z,69.17
2023-02-19T03:12:04.544Z,69.56
2023-02-19T03:15:06.892Z,70.02
2023-02-19T03:18:12.141Z,69.88
2023-02-19T03:20:47.096Z,70.34
2023-02-19T03:23:19.766Z,70.97
2023-02-19T03:26:05.811Z,70.76
2023-02-19T03:29:13.601Z,70.95
2023-02-19T03:31:47.034Z,70.32
2023-02-19T03:34:26.310Z,70.56
2023-02-19T03:37:08.127Z,70.71
2023-02-19T03:39:45.365Z,70.72
2023-02-19T03:42:25.018Z,70.27
2023-02-19T03:45:37.858Z,70.48
2023-02-19T03:48:39.303Z,70.40
2023-02-19T03:51:30.421Z,70.33
2023-02-19T03:54:30.138Z,70.42
2023-02-19T03:57:18.738Z,70.60
2023-02-19T04:00:20.346Z,70.31
2023-02-19T04:03:03.201Z,70.20
2023-02-19T04:05:36.714Z,70.45
2023-02-19T04:08:15.673Z,70.29
2023-02-19T04:10:52.316Z,70.39
2023-02-19T04:13:36.478Z,70.30
2023-02-19T04:16:14.768Z,70.64
2023-02-19T04:18:46.155Z,70.75
2023-02-19T04:21:18.160Z,70.33
2023-02-19T04:23:53.414Z,70.50
2023-02-19T04:26:24.752Z,70.23
2023-02-19T04:28:56.134Z,70.20
2023-02-19T04:31:29.409Z,70.83
2023-02-19T04:34:00.501Z,70.73
2023-02-19T04:36:35.501Z,71.26
2023-02-19T04:39:06.825Z,71.30
2023-02-19T04:41:37.406Z,71.12
2023-02-19T04:44:08.405Z,70.87
2023-02-19T04:46:38.710Z,71.32
2023-02-19T04:49:09.593Z,70.56
2023-02-19T04:51:40.741Z,71.16
2023-02-19T04:54:11.347Z,71.43
2023-02-19T04:56:42.330Z,71.41
2023-02-19T04:59:13.902Z,71.67
2023-02-19T05:01:53.551Z,72.07
2023-02-19T05:04:24.934Z,71.32
2023-02-19T05:06:55.823Z,71.60
2023-02-19T05:09:26.955Z,71.48
2023-02-19T05:11:57.929Z,71.82
2023-02-19T05:14:28.828Z,72.00
2023-02-19T05:16:59.654Z,72.52
2023-02-19T05:19:30.704Z,72.67
2023-02-19T05:22:01.908Z,73.07
2023-02-19T05:24:32.626Z,72.79
2023-02-19T05:27:03.259Z,72.75
2023-02-19T05:29:34.249Z,72.82
2023-02-19T05:32:05.415Z,73.40
2023-02-19T05:34:36.689Z,73.24
2023-02-19T05:37:07.486Z,73.44
2023-02-19T05:39:38.146Z,73.89
2023-02-19T05:42:09.342Z,74.13
2023-02-19T05:44:40.177Z,73.93
2023-02-19T05:47:11.262Z,73.97
2023-02-19T05:49:42.240Z,73.77
2023-02-19T05:52:13.207Z,73.96
2023-02-19T05:54:43.564Z,74.08
2023-02-19T05:57:14.248Z,73.97
2023-02-19T05:59:45.228Z,73.60
2023-02-19T06:02:16.136Z,73.13
2023-02-19T06:04:47.863Z,73.32
2023-02-19T06:07:18.692Z,72.89
2023-02-19T06:09:52.570Z,73.09
2023-02-19T06:12:23.538Z,73.30
2023-02-19T06:15:05.382Z,73.52
2023-02-19T06:17:36.712Z,73.62
2023-02-19T06:20:07.921Z,73.65
2023-02-19T06:22:38.688Z,73.99
2023-02-19T06:25:13.538Z,74.01
2023-02-19T06:27:43.953Z,74.19
2023-02-19T06:30:14.924Z,74.51
2023-02-19T06:32:46.012Z,74.01
2023-02-19T06:35:17.088Z,74.63
2023-02-19T06:37:54.372Z,74.14
2023-02-19T06:40:25.263Z,73.77
2023-02-19T06:42:56.581Z,74.18
2023-02-19T06:45:26.884Z,74.23
2023-02-19T06:47:58.097Z,73.56
2023-02-19T06:50:28.431Z,73.24
2023-02-19T06:52:59.108Z,73.18
2023-02-19T06:55:29.832Z,73.64
2023-02-19T06:58:00.605Z,72.99
2023-02-19T07:00:31.484Z,72.77
2023-02-19T07:03:04.479Z,72.82
2023-02-19T07:05:36.673Z,72.49
2023-02-19T07:08:07.949Z,72.44
2023-02-19T07:10:38.818Z,72.84
2023-02-19T07:13:09.922Z,72.83
2023-02-19T07:15:40.802Z,72.97
2023-02-19T07:18:11.441Z,72.47
2023-02-19T07:20:42.085Z,71.95
2023-02-19T07:23:23.673Z,72.61
2023-02-19T07:25:55.208Z,71.66
2023-02-19T07:28:26.780Z,71.40
2023-02-19T07:31:02.805Z,71.20
2023-02-19T07:33:33.593Z,71.17
2023-02-19T07:36:05.118Z,70.90
2023-02-19T07:38:35.776Z,71.19
2023-02-19T07:41:07.410Z,71.17
2023-02-19T07:43:39.362Z,71.45
2023-02-19T07:46:13.047Z,71.90
2023-02-19T07:48:45.435Z,72.40
2023-02-19T07:51:19.974Z,71.86
2023-02-19T07:53:51.908Z,72.13
2023-02-19T07:56:23.267Z,72.43
2023-02-19T07:58:53.924Z,72.22
2023-02-19T08:01:44.542Z,72.08
2023-02-19T08:04:16.777Z,72.41
2023-02-19T08:06:47.479Z,72.42
2023-02-19T08:09:21.056Z,72.21
2023-02-19T08:12:11.116Z,72.58
2023-02-19T08:14:42.145Z,72.85
2023-02-19T08:17:12.740Z,72.58
2023-02-19T08:19:44.081Z,72.40
2023-02-19T08:22:22.841Z,72.48
2023-02-19T08:24:53.757Z,72.47
2023-02-19T08:27:25.001Z,72.09
2023-02-19T08:29:56.200Z,72.44
2023-02-19T08:32:26.905Z,72.53
2023-02-19T08:34:57.865Z,73.55
2023-02-19T08:37:29.207Z,72.65
2023-02-19T08:39:59.742Z,73.16
2023-02-19T08:42:30.992Z,73.04
2023-02-19T08:45:01.677Z,72.55
2023-02-19T08:47:35.064Z,72.50
2023-02-19T08:50:07.781Z,72.71
2023-02-19T08:52:38.641Z,72.94
2023-02-19T08:55:10.085Z,72.56
2023-02-19T08:57:42.672Z,73.11
2023-02-19T09:00:17.242Z,72.83
2023-02-19T09:02:49.081Z,72.72
2023-02-19T09:05:20.027Z,72.73
2023-02-19T09:07:50.621Z,73.45
2023-02-19T09:10:21.505Z,73.01
2023-02-19T09:12:52.232Z,73.23
2023-02-19T09:15:23.297Z,72.81
2023-02-19T09:17:57.077Z,73.12
2023-02-19T09:20:27.542Z,72.56
2023-02-19T09:23:03.631Z,72.86
2023-02-19T09:25:34.940Z,72.68
2023-02-19T09:28:06.132Z,73.09
2023-02-19T09:30:36.937Z,72.82
2023-02-19T09:33:07.899Z,72.71
2023-02-19T09:35:41.514Z,72.80
2023-02-19T09:38:12.420Z,73.08
2023-02-19T09:40:45.822Z,72.88
2023-02-19T09:43:26.425Z,73.77
2023-02-19T09:46:06.066Z,73.72
2023-02-19T09:48:37.310Z,73.36
2023-02-19T09:51:10.478Z,73.48
2023-02-19T09:53:48.518Z,74.94
2023-02-19T09:56:21.474Z,74.25
2023-02-19T09:58:55.117Z,74.34
2023-02-19T10:01:28.280Z,74.37
2023-02-19T10:03:59.442Z,74.43
2023-02-19T10:06:31.279Z,74.25
2023-02-19T10:09:15.580Z,74.27
2023-02-19T10:11:47.200Z,74.57
2023-02-19T10:14:44.580Z,74.71
2023-02-19T10:17:32.443Z,74.94
2023-02-19T10:20:07.173Z,74.97
2023-02-19T10:22:38.956Z,74.67
2023-02-19T10:25:15.804Z,74.90
2023-02-19T10:27:47.118Z,75.27
2023-02-19T10:30:26.410Z,75.22
2023-02-19T10:33:18.029Z,75.48
2023-02-19T10:36:09.307Z,75.56
2023-02-19T10:38:48.426Z,75.16
2023-02-19T10:41:24.078Z,75.22
2023-02-19T10:44:18.736Z,75.58
2023-02-19T10:47:00.091Z,75.40
2023-02-19T10:49:44.952Z,75.91
2023-02-19T10:52:37.547Z,75.66
2023-02-19T10:55:31.480Z,75.70
2023-02-19T10:58:28.999Z,75.55
2023-02-19T11:01:23.086Z,75.54
2023-02-19T11:04:14.936Z,75.93
2023-02-19T11:06:46.876Z,75.36
2023-02-19T11:09:28.710Z,75.87
2023-02-19T11:12:00.435Z,75.56
2023-02-19T11:14:32.506Z,75.38
2023-02-19T11:17:06.489Z,75.63
2023-02-19T11:19:37.723Z,75.54
2023-02-19T11:22:31.363Z,75.55
2023-02-19T11:25:05.918Z,75.43
2023-02-19T11:27:37.021Z,75.66
2023-02-19T11:30:36.670Z,76.21
2023-02-19T11:33:25.668Z,75.99
2023-02-19T11:36:19.081Z,75.72
2023-02-19T11:38:50.692Z,76.13
2023-02-19T11:41:46.184Z,75.82
2023-02-19T11:44:37.963Z,76.15
2023-02-19T11:47:41.878Z,76.52
2023-02-19T11:50:46.337Z,76.01
2023-02-19T11:53:28.966Z,75.75
2023-02-19T11:56:22.809Z,76.25
2023-02-19T11:59:02.551Z,76.67
2023-02-19T12:02:00.409Z,76.30
2023-02-19T12:04:58.081Z,77.28
2023-02-19T14:39:49.498Z,77.15
2023-02-19T14:42:24.532Z,76.72
2023-02-19T14:45:00.858Z,77.14
2023-02-19T14:47:35.928Z,77.09
2023-02-19T14:50:18.895Z,77.09
2023-02-19T14:52:58.914Z,76.91
2023-02-19T14:55:34.861Z,76.87
2023-02-19T14:58:18.404Z,76.88
2023-02-19T15:00:49.150Z,76.75
2023-02-19T15:03:50.082Z,76.73
2023-02-19T15:06:21.429Z,76.94
2023-02-19T15:08:55.789Z,76.88
2023-02-19T15:11:28.545Z,77.16
2023-02-19T15:14:01.379Z,76.96
2023-02-19T15:16:36.235Z,76.84
2023-02-19T15:19:09.677Z,77.17
2023-02-19T15:21:42.986Z,77.05
2023-02-19T15:24:16.181Z,77.03
2023-02-19T15:26:51.920Z,76.83
2023-02-19T15:29:25.469Z,77.21
2023-02-19T15:32:01.769Z,76.92
2023-02-19T15:34:33.995Z,77.16
2023-02-19T15:37:08.782Z,77.00
2023-02-19T15:39:47.372Z,77.26
2023-02-19T15:42:34.374Z,77.50
2023-02-19T15:45:17.705Z,76.99
2023-02-19T15:48:00.306Z,77.37
2023-02-19T15:50:36.255Z,77.14
2023-02-19T15:53:23.462Z,77.05
2023-02-19T15:56:01.921Z,77.13
2023-02-19T15:58:45.067Z,76.73
2023-02-19T16:01:26.337Z,76.96
2023-02-19T16:03:57.860Z,76.64
2023-02-19T16:06:29.212Z,76.99
2023-02-19T16:09:06.622Z,77.04
2023-02-19T16:11:37.148Z,76.58
2023-02-19T16:14:33.666Z,77.23
2023-02-19T16:17:14.540Z,77.14
2023-02-19T16:19:45.133Z,77.22
2023-02-19T16:22:20.299Z,77.09
2023-02-19T16:24:53.240Z,76.92
2023-02-19T16:27:37.997Z,77.30
2023-02-19T16:30:13.044Z,77.08
2023-02-19T16:32:45.239Z,77.04
2023-02-19T16:35:53.132Z,77.14
2023-02-19T16:38:23.744Z,77.12
2023-02-19T16:41:05.760Z,77.75
2023-02-19T16:43:44.823Z,77.66
2023-02-19T16:46:15.903Z,78.04
2023-02-19T16:48:50.285Z,78.28
2023-02-19T16:51:27.614Z,78.10
2023-02-19T16:53:58.707Z,77.77
2023-02-19T16:56:32.044Z,78.22
2023-02-19T16:59:02.578Z,78.26
2023-02-19T17:01:33.359Z,78.36
2023-02-19T17:04:09.967Z,78.48
2023-02-19T17:06:41.007Z,78.51
2023-02-19T17:09:11.587Z,78.14
2023-02-19T17:11:43.272Z,78.27
2023-02-19T17:14:13.832Z,78.37
2023-02-19T17:16:44.300Z,78.64
2023-02-19T17:19:19.106Z,78.57
2023-02-19T17:21:49.494Z,78.50
2023-02-19T17:24:20.373Z,78.69
2023-02-19T17:26:51.206Z,78.84
2023-02-19T17:29:24.435Z,78.98
2023-02-19T17:31:54.862Z,78.84
2023-02-19T17:34:28.217Z,78.83
2023-02-19T17:36:59.138Z,79.16
2023-02-19T17:39:29.398Z,79.05
2023-02-19T17:41:59.767Z,78.83
2023-02-19T17:44:30.340Z,79.23
2023-02-19T17:47:00.902Z,79.48
2023-02-19T17:49:32.046Z,79.54
2023-02-19T17:52:02.344Z,79.42
2023-02-19T17:54:32.688Z,79.07
2023-02-19T17:57:03.080Z,79.65
2023-02-19T17:59:33.376Z,79.39
2023-02-19T18:02:04.365Z,79.70
2023-02-19T18:04:36.617Z,79.93
2023-02-19T18:07:07.237Z,80.01
2023-02-19T18:09:38.463Z,79.81
2023-02-19T18:12:09.182Z,80.10
2023-02-19T18:14:40.092Z,79.98
2023-02-19T18:17:11.247Z,79.92
2023-02-19T18:19:45.900Z,79.72
2023-02-19T18:22:16.472Z,79.68
2023-02-19T18:24:48.597Z,79.89
2023-02-19T18:27:21.193Z,79.79
2023-02-19T18:29:55.822Z,79.59
2023-02-19T18:32:26.882Z,79.48
2023-02-19T18:34:59.126Z,79.66
2023-02-19T18:37:34.804Z,79.61
2023-02-19T18:40:06.489Z,80.03
2023-02-19T18:42:36.832Z,79.89
2023-02-19T18:45:07.289Z,79.68
2023-02-19T18:47:37.880Z,79.98
2023-02-19T18:50:10.665Z,79.79
2023-02-19T18:52:42.545Z,80.14
2023-02-19T18:55:13.746Z,79.82
2023-02-19T18:57:45.060Z,79.91
2023-02-19T19:00:21.676Z,80.02
2023-02-19T19:02:52.209Z,80.07
2023-02-19T19:05:23.842Z,80.46
2023-02-19T19:07:56.224Z,80.22
2023-02-19T19:10:27.496Z,80.08
2023-02-19T19:12:58.612Z,80.35
2023-02-19T19:15:29.726Z,80.10
2023-02-19T19:18:00.945Z,79.76
2023-02-19T19:20:32.396Z,80.25
2023-02-19T19:23:03.523Z,80.50
2023-02-19T19:25:33.907Z,80.20
2023-02-19T19:28:04.758Z,80.25
2023-02-19T19:30:35.407Z,80.38
2023-02-19T19:33:06.251Z,80.78
2023-02-19T19:35:36.567Z,80.87
2023-02-19T19:38:07.111Z,80.64
2023-02-19T19:40:38.298Z,80.80
2023-02-19T19:43:08.470Z,80.58
2023-02-19T19:45:39.554Z,80.78
2023-02-19T19:48:10.700Z,80.75
2023-02-19T19:50:41.669Z,80.82
2023-02-19T19:53:14.811Z,80.94
2023-02-19T19:55:45.821Z,81.00
2023-02-19T19:58:23.686Z,81.15
2023-02-19T20:00:54.595Z,80.74
2023-02-19T20:03:25.202Z,80.97
2023-02-19T20:05:55.749Z,80.87
2023-02-19T20:08:26.444Z,80.70
2023-02-19T20:10:56.760Z,80.71
2023-02-19T20:13:30.226Z,80.73
2023-02-19T20:16:00.564Z,80.96
2023-02-19T20:18:31.542Z,80.78
2023-02-19T20:21:02.464Z,81.22
2023-02-19T20:23:34.266Z,80.90
2023-02-19T20:26:06.329Z,81.17
2023-02-19T20:28:37.249Z,81.40
2023-02-19T20:31:10.187Z,81.49
2023-02-19T20:33:41.031Z,81.51
2023-02-19T20:36:11.613Z,81.43
2023-02-19T20:38:44.542Z,81.58
2023-02-19T20:41:17.846Z,81.46
2023-02-19T20:43:48.549Z,81.52
2023-02-19T20:46:19.019Z,81.59
2023-02-19T20:48:51.608Z,81.48
2023-02-19T20:51:22.789Z,81.43
2023-02-19T20:53:53.816Z,81.49
2023-02-19T20:56:24.665Z,81.60
2023-02-19T20:58:55.299Z,81.41
2023-02-19T21:01:28.940Z,81.72
2023-02-19T21:03:59.484Z,81.63
2023-02-19T21:06:29.780Z,81.37
2023-02-19T21:09:00.825Z,81.88
2023-02-19T21:11:31.364Z,81.53
2023-02-19T21:14:01.977Z,81.99
2023-02-19T21:16:33.600Z,82.11
2023-02-19T21:19:04.138Z,81.76
2023-02-19T21:21:36.321Z,82.24
2023-02-19T21:24:07.440Z,82.17
2023-02-19T21:26:39.878Z,82.04
2023-02-19T21:29:14.861Z,82.21
2023-02-19T21:31:47.687Z,82.09
2023-02-19T21:34:20.900Z,82.13
2023-02-19T21:36:51.594Z,81.89
2023-02-19T21:39:23.999Z,81.85
2023-02-19T21:42:10.382Z,81.83
2023-02-19T21:44:43.248Z,82.23
2023-02-19T21:47:16.129Z,82.20
2023-02-19T21:49:47.018Z,82.11
2023-02-19T21:52:17.679Z,82.55
2023-02-19T21:54:48.514Z,82.32
2023-02-19T21:57:18.986Z,81.92
2023-02-19T21:59:49.376Z,82.09
2023-02-19T22:02:23.088Z,81.85
2023-02-19T22:04:55.216Z,82.12
2023-02-19T22:07:26.841Z,82.27
2023-02-19T22:09:59.486Z,82.46
2023-02-19T22:12:30.651Z,82.29
2023-02-19T22:15:01.353Z,82.00
2023-02-19T22:17:31.447Z,81.58
2023-02-19T22:20:01.979Z,81.72
2023-02-19T22:22:32.298Z,81.61
2023-02-19T22:25:02.803Z,81.51
2023-02-19T22:27:33.696Z,81.91
2023-02-19T22:30:06.364Z,81.69
2023-02-19T22:32:36.998Z,81.66
2023-02-19T22:35:07.759Z,81.69
2023-02-19T22:37:38.727Z,81.32
2023-02-19T22:40:10.664Z,81.32
2023-02-19T22:42:41.024Z,81.51
2023-02-19T22:45:13.123Z,81.85
2023-02-19T22:47:45.583Z,81.82
2023-02-19T22:50:20.949Z,81.63
2023-02-19T22:52:55.805Z,81.66
2023-02-19T22:55:26.249Z,81.39
2023-02-19T22:57:57.540Z,80.75
2023-02-19T23:00:27.980Z,81.11
2023-02-19T23:02:58.672Z,81.19
2023-02-19T23:05:29.929Z,81.04
2023-02-19T23:08:00.278Z,80.96
2023-02-19T23:10:34.028Z,80.55
2023-02-19T23:13:04.660Z,80.68
2023-02-19T23:15:35.008Z,80.70
2023-02-19T23:18:07.122Z,80.54
2023-02-19T23:20:37.428Z,80.86
2023-02-19T23:23:08.058Z,80.73
2023-02-19T23:25:39.270Z,80.67
2023-02-19T23:28:09.713Z,80.29
2023-02-19T23:30:40.228Z,80.72
2023-02-19T23:33:11.227Z,80.49
2023-02-19T23:35:41.567Z,80.24
2023-02-19T23:38:12.214Z,80.56
2023-02-19T23:40:42.837Z,80.72
2023-02-19T23:43:13.620Z,80.72
2023-02-19T23:45:43.929Z,80.37
2023-02-19T23:48:14.824Z,80.78
2023-02-19T23:50:46.477Z,80.79
2023-02-19T23:53:17.178Z,81.29
2023-02-19T23:55:48.286Z,80.83
2023-02-19T23:58:19.325Z,80.82
